Terminal Aerodrome Forecast
Issued by NWS

Home | Current Version | Previous Version | Text Only | Print | Product List | Glossary Off
Versions: 1 2 3 4 5 6 7 8 9 10 11 12 13 14 15 16 17

539
FTUS43 KMPX 212203 AAB
TAFAXN
TAF AMD
KAXN 212203Z 2122/2218 28010KT P6SM BKN025 OVC045
      TEMPO 2122/2123 SCT025 OVC045
     FM220000 27012KT P6SM SCT045 BKN090
     FM220500 27011KT P6SM SCT250=

USA.gov is the U.S. government's official web portal to all federal, state and local government web resources and services.